Rechercher aéroport 
image banner adimage banner ad
image banner ad

DAAG - Alger / Houari Boumediene

Situé à Alger, Algeria

ICAO - DAAG, IATA - ALG

Données fournies par Airmate  

Information générale

Coordonnées: N36°41'38" E3°12'52"
Élévation : 82 feet MSL.
 
Évalué:
Voir évaluations:
[VIEW]
Voir autres Aéroports à Boumerdès Province

Données opérationnelles

Accessible au public
Heure actuelle UTC:
Heure actuelle locale:
Météo
METAR: DAAG 230530Z 32003KT CAVOK 20/15 Q1015
TAF: TAF COR DAAG 222300Z 2300/2324 VRB02KT 9999 FEW026 BECMG 2309/2312 24010KT PROB30 TEMPO 2309/2315 FEW023TCU BECMG 2318/2321 VRB02KT
Voir NOTAMs / SUP AIP / TFR affectant cet aéroport [VIEW]
Fréquences de communication: [VIEW]

Pistes:

Identifiant RWYQFULongueur (ft)Largeur (ft)SurfaceLDA (ft)
0553°11483197ASP
23233°11483197
0992°11483148
27272°11483148

Coordonnées de l'aéroport

Adresse: Alger Algeria

Vue satellite de DAAG